Time;durP1;ratioP1;P1;durP2;ratioP2;P2;SDS_P1;SDS_P2;PMS_P1;PMS_P2;Temp;Humidity;BMP_temperature;BMP_pressure;BME280_temperature;BME280_humidity;BME280_pressure;Samples;Min_cycle;Max_cycle;Signal;HPM_P1;HPM_P2
2023/05/07 00:00:49;;;;;;;7.45;5.30;;;16.70;1.00;;;;;;5052927;28;20246;-81
2023/05/07 00:03:18;;;;;;;5.32;4.82;;;16.60;1.00;;;;;;5053234;28;20584;-80
2023/05/07 00:05:46;;;;;;;8.50;6.60;;;16.60;1.00;;;;;;5052481;28;20227;-81
2023/05/07 00:08:13;;;;;;;7.07;5.32;;;16.60;1.00;;;;;;5053134;28;20213;-81
2023/05/07 00:10:40;;;;;;;7.57;4.75;;;16.80;1.00;;;;;;5053821;28;20226;-79
2023/05/07 00:13:07;;;;;;;8.73;4.68;;;16.70;1.00;;;;;;5053210;28;20716;-80
2023/05/07 00:15:35;;;;;;;7.03;5.72;;;16.80;1.00;;;;;;5052897;28;20297;-81
2023/05/07 00:18:02;;;;;;;4.70;4.30;;;16.70;1.00;;;;;;5052337;28;20329;-81
2023/05/07 00:20:30;;;;;;;13.30;4.85;;;16.70;1.00;;;;;;5052830;28;20203;-81
2023/05/07 00:22:57;;;;;;;6.68;4.35;;;16.80;1.00;;;;;;5052432;28;20238;-81
2023/05/07 00:25:24;;;;;;;7.15;4.13;;;16.70;1.00;;;;;;5052844;28;20677;-81
2023/05/07 00:27:51;;;;;;;7.68;5.10;;;16.70;1.00;;;;;;5052276;28;20249;-81
2023/05/07 00:30:18;;;;;;;5.10;4.60;;;16.70;1.00;;;;;;5052618;28;20225;-81
2023/05/07 00:32:45;;;;;;;6.38;5.22;;;16.80;1.00;;;;;;5052217;28;20242;-80
2023/05/07 00:35:13;;;;;;;7.30;5.50;;;16.70;1.00;;;;;;5052693;28;20734;-80
2023/05/07 00:37:41;;;;;;;6.13;5.15;;;16.60;1.00;;;;;;5052894;28;20207;-81
2023/05/07 00:40:09;;;;;;;6.43;4.15;;;16.60;1.00;;;;;;5052826;28;20202;-82
2023/05/07 00:42:36;;;;;;;9.80;5.30;;;16.70;1.00;;;;;;5052365;28;20235;-81
2023/05/07 00:45:04;;;;;;;5.75;4.40;;;16.70;1.00;;;;;;5052312;28;20202;-82
2023/05/07 00:47:31;;;;;;;13.15;4.72;;;16.80;1.00;;;;;;5052342;28;20266;-80
2023/05/07 00:49:58;;;;;;;13.05;4.70;;;16.80;1.00;;;;;;5051973;28;20674;-81
2023/05/07 00:52:27;;;;;;;5.45;4.95;;;16.70;1.00;;;;;;5052464;28;20234;-80
2023/05/07 00:54:56;;;;;;;7.70;5.72;;;16.60;1.00;;;;;;5051327;28;20242;-81
2023/05/07 00:57:25;;;;;;;6.13;5.22;;;16.60;1.00;;;;;;5052072;28;20290;-80
2023/05/07 00:59:53;;;;;;;9.02;4.22;;;16.50;1.00;;;;;;5051655;28;20202;-80
2023/05/07 01:02:20;;;;;;;7.10;5.35;;;16.50;1.00;;;;;;5051965;28;20652;-77
2023/05/07 01:04:46;;;;;;;6.95;4.65;;;16.40;1.00;;;;;;5051800;28;20230;-80
2023/05/07 01:07:14;;;;;;;7.57;5.55;;;16.50;1.00;;;;;;5052233;28;20313;-80
2023/05/07 01:09:41;;;;;;;5.70;4.60;;;16.40;1.00;;;;;;5052424;28;20206;-81
2023/05/07 01:12:10;;;;;;;5.38;4.20;;;16.40;1.00;;;;;;5052076;28;20199;-81
2023/05/07 01:14:37;;;;;;;6.15;3.92;;;16.50;1.00;;;;;;5052203;28;20664;-80
2023/05/07 01:17:04;;;;;;;8.15;4.97;;;16.40;1.00;;;;;;5051432;28;20242;-81
2023/05/07 01:19:32;;;;;;;9.80;4.28;;;16.40;1.00;;;;;;5052119;28;20231;-80
2023/05/07 01:22:04;;;;;;;6.95;4.30;;;16.50;1.00;;;;;;5051373;28;20241;-80
2023/05/07 01:24:34;;;;;;;8.82;5.00;;;16.50;1.00;;;;;;5051682;28;20206;-79
2023/05/07 01:27:02;;;;;;;7.05;4.03;;;16.40;1.00;;;;;;5050954;28;20234;-81
2023/05/07 01:29:29;;;;;;;11.63;4.38;;;16.40;1.00;;;;;;5051426;28;20219;-81
2023/05/07 01:31:58;;;;;;;7.45;4.30;;;16.40;1.00;;;;;;5051324;28;20289;-81
2023/05/07 01:34:26;;;;;;;8.15;4.72;;;16.40;1.00;;;;;;5051419;28;20205;-81
2023/05/07 01:36:55;;;;;;;6.65;4.07;;;16.40;1.00;;;;;;5051143;28;20207;-80
2023/05/07 01:39:23;;;;;;;8.23;3.92;;;16.50;1.00;;;;;;5051252;28;20199;-81
2023/05/07 01:41:52;;;;;;;6.97;3.80;;;16.50;1.00;;;;;;5050559;28;20203;-79
2023/05/07 01:44:20;;;;;;;5.80;3.67;;;16.40;1.00;;;;;;5051319;28;20237;-80
2023/05/07 01:46:48;;;;;;;6.53;3.95;;;16.30;1.00;;;;;;5050896;28;20273;-79
2023/05/07 01:49:16;;;;;;;3.95;3.50;;;16.30;1.00;;;;;;5051300;28;20239;-80
2023/05/07 01:51:43;;;;;;;4.32;3.60;;;16.40;1.00;;;;;;5051040;28;20641;-75
2023/05/07 01:54:10;;;;;;;3.65;3.25;;;16.40;1.00;;;;;;5051065;28;20651;-80
2023/05/07 01:56:37;;;;;;;6.07;3.55;;;16.30;1.00;;;;;;5051512;28;20211;-79
2023/05/07 01:59:06;;;;;;;9.90;4.60;;;16.30;1.00;;;;;;5050841;28;20243;-80
2023/05/07 02:01:32;;;;;;;7.75;4.55;;;16.40;1.00;;;;;;5051046;28;20318;-78
2023/05/07 02:03:59;;;;;;;4.13;3.78;;;16.30;1.00;;;;;;5050632;28;20242;-80
2023/05/07 02:06:26;;;;;;;5.55;3.25;;;16.30;1.00;;;;;;5050002;28;20230;-79
2023/05/07 02:08:53;;;;;;;8.10;3.67;;;16.40;1.00;;;;;;5050631;28;20207;-79
2023/05/07 02:11:20;;;;;;;9.15;3.97;;;16.40;1.00;;;;;;5051030;28;20238;-79
2023/05/07 02:13:47;;;;;;;9.20;4.47;;;16.40;1.00;;;;;;5050837;28;20230;-79
2023/05/07 02:16:15;;;;;;;9.85;3.88;;;16.40;1.00;;;;;;5051064;28;20230;-79
2023/05/07 02:18:42;;;;;;;7.13;3.95;;;16.40;1.00;;;;;;5050927;28;20237;-78
2023/05/07 02:21:09;;;;;;;8.15;4.22;;;16.30;1.00;;;;;;5051140;28;20282;-80
2023/05/07 02:23:36;;;;;;;9.73;4.50;;;16.30;1.00;;;;;;5051245;28;20238;-79
2023/05/07 02:26:05;;;;;;;5.85;3.85;;;16.30;1.00;;;;;;5050173;28;20250;-80
2023/05/07 02:28:32;;;;;;;8.07;3.92;;;16.30;1.00;;;;;;5050785;28;20341;-79
2023/05/07 02:31:00;;;;;;;4.97;3.03;;;16.30;1.00;;;;;;5050782;28;20257;-80
2023/05/07 02:33:28;;;;;;;8.68;4.10;;;16.20;1.00;;;;;;5050721;28;20202;-80
2023/05/07 02:35:55;;;;;;;8.90;4.78;;;16.10;1.00;;;;;;5050349;28;20238;-80
2023/05/07 02:38:23;;;;;;;6.85;3.05;;;16.20;1.00;;;;;;5050588;28;20260;-79
2023/05/07 02:40:50;;;;;;;7.97;3.53;;;16.20;1.00;;;;;;5050390;28;20256;-79
2023/05/07 02:43:17;;;;;;;10.30;3.63;;;16.10;1.00;;;;;;5050753;28;20245;-79
2023/05/07 02:45:44;;;;;;;8.80;4.20;;;16.00;1.00;;;;;;5050271;28;20705;-79
2023/05/07 02:48:11;;;;;;;7.97;3.92;;;16.10;1.00;;;;;;5050713;28;20231;-75
2023/05/07 02:50:39;;;;;;;9.90;3.58;;;16.00;1.00;;;;;;5051219;28;20253;-79
2023/05/07 02:53:06;;;;;;;5.53;3.72;;;16.00;1.00;;;;;;5050366;28;20211;-79
2023/05/07 02:55:33;;;;;;;11.95;4.18;;;15.90;1.00;;;;;;5050463;28;20234;-79
2023/05/07 02:58:00;;;;;;;11.50;4.13;;;15.90;1.00;;;;;;5050298;28;20238;-79
2023/05/07 03:00:27;;;;;;;8.57;3.35;;;15.90;1.00;;;;;;5050337;28;20249;-78
2023/05/07 03:02:54;;;;;;;13.48;3.97;;;15.80;1.00;;;;;;5049875;28;20332;-80
2023/05/07 03:05:21;;;;;;;7.32;3.63;;;15.80;1.00;;;;;;5050475;28;20207;-79
2023/05/07 03:07:49;;;;;;;11.70;4.07;;;15.80;1.00;;;;;;5049786;28;20309;-79
2023/05/07 03:10:16;;;;;;;9.00;4.40;;;15.80;1.00;;;;;;5050216;28;20242;-78
2023/05/07 03:12:43;;;;;;;9.25;4.10;;;15.80;1.00;;;;;;5049893;28;20620;-78
2023/05/07 03:15:12;;;;;;;7.47;3.42;;;15.80;1.00;;;;;;5050553;28;20199;-78
2023/05/07 03:17:39;;;;;;;11.35;4.30;;;15.80;1.00;;;;;;5051228;28;20203;-79
2023/05/07 03:20:08;;;;;;;8.82;3.40;;;15.80;1.00;;;;;;5053967;28;20236;-79
2023/05/07 03:22:35;;;;;;;11.48;4.35;;;15.80;1.00;;;;;;5053817;28;20211;-80
2023/05/07 03:25:03;;;;;;;6.47;3.92;;;15.80;1.00;;;;;;5053500;28;20256;-80
2023/05/07 03:27:31;;;;;;;7.85;4.13;;;16.00;1.00;;;;;;5053709;28;20266;-79
2023/05/07 03:29:58;;;;;;;6.82;4.20;;;16.10;1.00;;;;;;5053271;28;20230;-80
2023/05/07 03:32:25;;;;;;;7.57;3.88;;;16.00;1.00;;;;;;5053693;28;20242;-80
2023/05/07 03:34:52;;;;;;;10.77;3.67;;;16.10;1.00;;;;;;5053260;28;20238;-80
2023/05/07 03:37:19;;;;;;;5.35;3.65;;;16.00;1.00;;;;;;5053550;28;20203;-79
2023/05/07 03:39:46;;;;;;;4.75;3.40;;;16.00;1.00;;;;;;5053345;28;20292;-80
2023/05/07 03:42:16;;;;;;;11.27;3.70;;;16.00;1.00;;;;;;5053550;28;20249;-79
2023/05/07 03:44:43;;;;;;;6.88;3.22;;;16.00;1.00;;;;;;5053300;28;20238;-75
2023/05/07 03:47:10;;;;;;;9.52;3.80;;;16.20;1.00;;;;;;5053896;28;20275;-80
2023/05/07 03:49:38;;;;;;;6.30;3.28;;;16.20;1.00;;;;;;5053601;28;20305;-80
2023/05/07 03:52:05;;;;;;;8.13;3.85;;;16.20;1.00;;;;;;5052787;28;20651;-80
2023/05/07 03:54:32;;;;;;;9.15;3.38;;;16.10;1.00;;;;;;5053395;28;20697;-79
2023/05/07 03:56:59;;;;;;;8.13;3.80;;;16.10;1.00;;;;;;5052918;28;20246;-80
2023/05/07 03:59:27;;;;;;;8.88;3.85;;;16.00;1.00;;;;;;5053445;28;20231;-80
2023/05/07 04:01:54;;;;;;;10.15;4.25;;;16.10;1.00;;;;;;5052873;28;20643;-80
2023/05/07 04:04:21;;;;;;;9.82;3.90;;;16.00;1.00;;;;;;5053134;28;20207;-80
2023/05/07 04:06:48;;;;;;;5.82;3.83;;;16.10;1.00;;;;;;5052840;28;20310;-80
2023/05/07 04:09:15;;;;;;;9.82;4.30;;;16.10;1.00;;;;;;5053234;28;20237;-82
2023/05/07 04:11:42;;;;;;;7.70;3.42;;;16.00;1.00;;;;;;5053165;28;20242;-81
2023/05/07 04:14:09;;;;;;;6.82;3.55;;;16.00;1.00;;;;;;5053469;28;20203;-81
2023/05/07 04:16:37;;;;;;;8.60;4.47;;;16.00;1.00;;;;;;5053119;28;20242;-82
2023/05/07 04:19:04;;;;;;;6.60;2.95;;;16.00;1.00;;;;;;5052650;28;20250;-81
2023/05/07 04:21:31;;;;;;;7.32;2.97;;;16.00;1.00;;;;;;5052912;28;20659;-81
2023/05/07 04:23:58;;;;;;;13.48;3.92;;;15.90;1.00;;;;;;5052719;28;20348;-80
2023/05/07 04:26:25;;;;;;;8.38;3.75;;;15.90;1.00;;;;;;5052747;28;20238;-82
2023/05/07 04:28:52;;;;;;;7.22;3.70;;;15.80;1.00;;;;;;5051845;28;20245;-82
2023/05/07 04:31:19;;;;;;;10.45;4.25;;;15.70;1.00;;;;;;5052482;28;20199;-83
2023/05/07 04:33:47;;;;;;;6.00;2.95;;;15.70;1.00;;;;;;5052563;28;20233;-82
2023/05/07 04:36:15;;;;;;;9.88;3.25;;;15.70;1.00;;;;;;5052574;28;20226;-83
2023/05/07 04:38:42;;;;;;;11.65;4.70;;;15.70;1.00;;;;;;5052661;28;20202;-81
2023/05/07 04:41:10;;;;;;;6.53;3.50;;;15.60;1.00;;;;;;5052985;28;20792;-82
2023/05/07 04:43:37;;;;;;;5.60;2.97;;;15.70;1.00;;;;;;5052999;28;20245;-82
2023/05/07 04:46:04;;;;;;;5.28;3.80;;;15.80;1.00;;;;;;5052237;28;20234;-82
2023/05/07 04:48:31;;;;;;;7.55;3.97;;;15.80;1.00;;;;;;5052530;28;20238;-83
2023/05/07 04:50:59;;;;;;;10.65;3.63;;;15.70;1.00;;;;;;5051982;28;20230;-82
2023/05/07 04:53:26;;;;;;;12.73;4.00;;;15.70;1.00;;;;;;5052152;28;20207;-82
2023/05/07 04:55:57;;;;;;;6.32;2.67;;;15.70;1.00;;;;;;5052165;28;20253;-82
2023/05/07 04:58:24;;;;;;;6.03;3.65;;;15.70;1.00;;;;;;5052003;28;20206;-82
2023/05/07 05:00:51;;;;;;;9.40;3.38;;;15.70;1.00;;;;;;5051709;28;20724;-81
2023/05/07 05:03:18;;;;;;;4.95;3.25;;;15.60;1.00;;;;;;5051703;28;20682;-81
2023/05/07 05:05:45;;;;;;;13.77;4.43;;;15.60;1.00;;;;;;5051806;28;20243;-82
2023/05/07 05:08:13;;;;;;;7.47;3.90;;;15.60;1.00;;;;;;5052366;28;20276;-81
2023/05/07 05:10:41;;;;;;;7.78;4.32;;;15.70;1.00;;;;;;5052649;28;20253;-83
2023/05/07 05:13:09;;;;;;;13.30;4.30;;;15.70;1.00;;;;;;5052292;28;20701;-83
2023/05/07 05:15:35;;;;;;;8.73;3.58;;;15.70;1.00;;;;;;5052121;28;20203;-82
2023/05/07 05:18:02;;;;;;;7.43;3.88;;;15.60;1.00;;;;;;5051516;28;20234;-83
2023/05/07 05:20:29;;;;;;;10.75;3.03;;;15.60;1.00;;;;;;5051946;28;20235;-83
2023/05/07 05:22:56;;;;;;;8.75;3.40;;;15.70;1.00;;;;;;5051694;28;20249;-82
2023/05/07 05:25:24;;;;;;;10.82;3.53;;;15.60;1.00;;;;;;5052308;28;20234;-82
2023/05/07 05:27:51;;;;;;;5.72;3.60;;;15.70;1.00;;;;;;5051463;28;20229;-82
2023/05/07 05:30:18;;;;;;;8.45;3.97;;;15.80;1.00;;;;;;5052011;28;20242;-82
2023/05/07 05:32:45;;;;;;;5.30;2.95;;;15.80;1.00;;;;;;5051114;28;20234;-81
2023/05/07 05:35:12;;;;;;;10.80;4.25;;;15.70;1.00;;;;;;5051797;28;20245;-81
2023/05/07 05:37:39;;;;;;;8.52;3.28;;;15.70;1.00;;;;;;5051951;28;20254;-73
2023/05/07 05:40:07;;;;;;;8.65;3.50;;;15.70;1.00;;;;;;5051558;28;20249;-82
2023/05/07 05:42:35;;;;;;;7.28;3.55;;;15.90;1.00;;;;;;5051462;28;20233;-81
2023/05/07 05:45:02;;;;;;;7.50;4.22;;;15.90;1.00;;;;;;5050992;28;20238;-81
2023/05/07 05:47:30;;;;;;;6.65;3.35;;;15.80;1.00;;;;;;5050911;28;20269;-81
2023/05/07 05:49:57;;;;;;;5.32;2.85;;;15.90;1.00;;;;;;5051051;28;20203;-81
2023/05/07 05:52:24;;;;;;;9.10;2.95;;;15.90;1.00;;;;;;5051405;28;20230;-82
2023/05/07 05:54:51;;;;;;;6.68;3.17;;;15.90;1.00;;;;;;5050789;28;20206;-81
2023/05/07 05:57:18;;;;;;;7.07;3.47;;;15.90;1.00;;;;;;5051288;28;20253;-81
2023/05/07 05:59:47;;;;;;;5.93;3.60;;;16.00;1.00;;;;;;5050717;28;20203;-82
2023/05/07 06:02:14;;;;;;;19.85;3.85;;;16.10;1.00;;;;;;5050786;28;20246;-81
2023/05/07 06:04:42;;;;;;;9.85;4.80;;;16.00;1.00;;;;;;5050941;28;20206;-77
2023/05/07 06:07:09;;;;;;;7.18;2.97;;;16.00;1.00;;;;;;5051550;28;20212;-82
2023/05/07 06:09:36;;;;;;;7.68;3.40;;;16.00;1.00;;;;;;5051101;28;20748;-81
2023/05/07 06:12:03;;;;;;;5.30;3.05;;;16.00;1.00;;;;;;5050825;28;20616;-82
2023/05/07 06:14:30;;;;;;;12.30;4.72;;;16.00;1.00;;;;;;5050880;28;20698;-81
2023/05/07 06:16:58;;;;;;;7.25;3.40;;;16.10;1.00;;;;;;5050501;28;20249;-81
2023/05/07 06:19:26;;;;;;;4.80;2.75;;;16.10;1.00;;;;;;5050874;28;20250;-82
2023/05/07 06:21:53;;;;;;;8.82;3.60;;;16.00;1.00;;;;;;5050466;28;20298;-81
2023/05/07 06:24:20;;;;;;;9.52;3.63;;;16.00;1.00;;;;;;5050929;28;20234;-81
2023/05/07 06:26:47;;;;;;;9.38;4.80;;;15.90;1.00;;;;;;5050570;28;20242;-82
2023/05/07 06:29:14;;;;;;;9.23;3.75;;;15.90;1.00;;;;;;5050467;28;20272;-81
2023/05/07 06:31:40;;;;;;;6.75;2.88;;;15.90;1.00;;;;;;5051146;28;20230;-74
2023/05/07 06:34:09;;;;;;;11.35;3.78;;;15.90;1.00;;;;;;5051047;28;20238;-82
2023/05/07 06:36:36;;;;;;;7.65;3.78;;;15.90;1.00;;;;;;5051162;28;20651;-81
2023/05/07 06:39:03;;;;;;;7.93;3.72;;;15.90;1.00;;;;;;5050287;28;20249;-81
2023/05/07 06:41:30;;;;;;;10.60;4.43;;;15.80;1.00;;;;;;5050283;28;20693;-82
2023/05/07 06:43:57;;;;;;;6.70;2.95;;;15.90;1.00;;;;;;5050543;28;20252;-81
2023/05/07 06:46:24;;;;;;;6.93;4.13;;;15.90;1.00;;;;;;5050554;28;20245;-82
2023/05/07 06:48:52;;;;;;;7.45;4.30;;;15.90;1.00;;;;;;5050190;28;20238;-81
2023/05/07 06:51:20;;;;;;;7.70;3.38;;;15.90;1.00;;;;;;5050831;28;20209;-82
2023/05/07 06:53:47;;;;;;;7.00;2.83;;;15.90;1.00;;;;;;5052863;28;20237;-82
2023/05/07 06:56:14;;;;;;;7.43;3.40;;;15.90;1.00;;;;;;5054537;28;20654;-82
2023/05/07 06:58:41;;;;;;;11.20;3.28;;;16.00;1.00;;;;;;5055108;28;20214;-83
2023/05/07 07:01:08;;;;;;;8.52;3.78;;;16.10;1.00;;;;;;5054770;28;20199;-82
2023/05/07 07:03:35;;;;;;;9.90;3.85;;;16.10;1.00;;;;;;5054564;28;20234;-84
2023/05/07 07:06:02;;;;;;;10.45;4.28;;;16.20;1.00;;;;;;5054533;28;20245;-83
2023/05/07 07:08:30;;;;;;;7.15;3.60;;;16.20;1.00;;;;;;5054766;28;20292;-83
2023/05/07 07:10:57;;;;;;;12.70;4.03;;;16.20;1.00;;;;;;5054124;28;20231;-83
2023/05/07 07:13:24;;;;;;;10.82;4.07;;;16.20;1.00;;;;;;5054262;28;20249;-83
2023/05/07 07:15:51;;;;;;;15.20;4.45;;;16.10;1.00;;;;;;5053799;28;20241;-82
2023/05/07 07:18:18;;;;;;;8.00;3.67;;;16.10;1.00;;;;;;5054247;28;20238;-81
2023/05/07 07:20:45;;;;;;;8.68;3.45;;;16.10;1.00;;;;;;5053775;28;20238;-81
2023/05/07 07:23:12;;;;;;;10.07;3.10;;;16.20;1.00;;;;;;5054007;28;20207;-80
2023/05/07 07:25:40;;;;;;;11.52;3.88;;;16.20;1.00;;;;;;5054513;28;20227;-82
2023/05/07 07:28:07;;;;;;;6.38;3.42;;;16.20;1.00;;;;;;5053866;28;20273;-82
2023/05/07 07:30:34;;;;;;;7.65;3.70;;;16.20;1.00;;;;;;5053921;28;20241;-81
2023/05/07 07:33:02;;;;;;;5.60;2.95;;;16.30;1.00;;;;;;5053563;28;20253;-82
2023/05/07 07:35:29;;;;;;;7.50;4.63;;;16.20;1.00;;;;;;5053733;28;20213;-82
2023/05/07 07:37:56;;;;;;;12.70;4.00;;;16.30;1.00;;;;;;5053377;28;20242;-82
2023/05/07 07:40:23;;;;;;;8.38;4.35;;;16.30;1.00;;;;;;5053956;28;20241;-81
2023/05/07 07:42:52;;;;;;;10.02;3.45;;;16.30;1.00;;;;;;5053283;28;20213;-83
2023/05/07 07:45:19;;;;;;;11.25;4.50;;;16.30;1.00;;;;;;5053814;28;20707;-82
2023/05/07 07:47:46;;;;;;;9.20;3.60;;;16.40;1.00;;;;;;5053432;28;20253;-82
2023/05/07 07:50:13;;;;;;;9.13;4.57;;;16.50;1.00;;;;;;5053651;28;20242;-82
2023/05/07 07:52:40;;;;;;;6.63;3.05;;;16.60;1.00;;;;;;5053846;28;20253;-82
2023/05/07 07:55:08;;;;;;;10.60;4.70;;;16.60;1.00;;;;;;5053639;28;20245;-83
2023/05/07 07:57:35;;;;;;;7.07;3.03;;;16.60;1.00;;;;;;5053701;28;20242;-82
2023/05/07 08:00:04;;;;;;;8.98;4.85;;;16.70;1.00;;;;;;5053066;28;20249;-83
2023/05/07 08:02:31;;;;;;;12.82;3.42;;;16.70;1.00;;;;;;5053608;28;20273;-84
2023/05/07 08:04:58;;;;;;;8.43;3.67;;;16.70;99.90;;;;;;5053295;28;20238;-84
2023/05/07 08:07:25;;;;;;;10.43;4.18;;;16.90;99.90;;;;;;5053679;28;20682;-84
2023/05/07 08:09:51;;;;;;;5.85;3.10;;;17.00;99.90;;;;;;5053412;28;20270;-82
2023/05/07 08:12:18;;;;;;;7.47;3.95;;;17.10;99.90;;;;;;5053329;28;20235;-82
2023/05/07 08:14:45;;;;;;;6.72;3.42;;;17.20;99.90;;;;;;5053077;28;20268;-82
2023/05/07 08:17:15;;;;;;;13.43;3.47;;;17.30;99.90;;;;;;5052944;28;20249;-72
2023/05/07 08:19:42;;;;;;;5.90;2.92;;;17.30;99.90;;;;;;5053025;28;20206;-82
2023/05/07 08:22:10;;;;;;;6.28;3.13;;;17.40;99.90;;;;;;5053655;28;20242;-82
2023/05/07 08:24:37;;;;;;;8.98;3.60;;;17.40;99.90;;;;;;5053360;28;20199;-79
2023/05/07 08:27:04;;;;;;;4.50;3.78;;;17.30;99.90;;;;;;5052249;28;20245;-82
2023/05/07 08:29:31;;;;;;;7.93;3.03;;;17.20;99.90;;;;;;5052588;28;20240;-79
2023/05/07 08:31:58;;;;;;;8.93;3.92;;;17.10;99.90;;;;;;5052335;28;20230;-80
2023/05/07 08:34:26;;;;;;;9.60;4.15;;;17.10;99.90;;;;;;5052928;28;20234;-81
2023/05/07 08:36:53;;;;;;;7.90;3.35;;;17.20;99.90;;;;;;5052509;28;20643;-78
2023/05/07 08:39:20;;;;;;;11.27;4.65;;;17.20;99.90;;;;;;5052596;28;20280;-79
2023/05/07 08:41:47;;;;;;;5.55;3.00;;;17.20;99.90;;;;;;5051747;28;20245;-77
2023/05/07 08:44:15;;;;;;;9.32;4.53;;;17.20;99.90;;;;;;5052569;28;20242;-80
2023/05/07 08:46:43;;;;;;;9.10;2.75;;;17.20;99.90;;;;;;5052407;28;20203;-77
2023/05/07 08:49:10;;;;;;;10.27;3.60;;;17.30;99.90;;;;;;5052716;28;20322;-79
2023/05/07 08:51:38;;;;;;;9.60;4.32;;;17.30;99.90;;;;;;5052849;28;20210;-79
2023/05/07 08:54:06;;;;;;;7.10;3.03;;;17.20;99.90;;;;;;5051837;28;20234;-79
2023/05/07 08:56:33;;;;;;;10.43;3.58;;;17.30;99.90;;;;;;5052126;28;20674;-80
2023/05/07 08:59:00;;;;;;;11.52;3.85;;;17.40;99.90;;;;;;5051701;28;20249;-77
2023/05/07 09:01:27;;;;;;;7.90;3.85;;;17.70;99.90;;;;;;5051943;28;20253;-78
2023/05/07 09:03:54;;;;;;;5.45;3.05;;;18.20;99.90;;;;;;5051752;28;20230;-80
2023/05/07 09:06:21;;;;;;;9.80;3.38;;;18.40;99.90;;;;;;5052272;28;20203;-79
2023/05/07 09:08:53;;;;;;;6.03;2.83;;;18.30;99.90;;;;;;5051661;28;20291;-77
2023/05/07 09:11:22;;;;;;;5.55;3.20;;;18.20;99.90;;;;;;5051851;28;20211;-79
2023/05/07 09:13:49;;;;;;;10.43;3.50;;;18.40;99.90;;;;;;5051452;28;20203;-80
2023/05/07 09:16:17;;;;;;;6.35;3.00;;;18.50;99.90;;;;;;5051280;28;20202;-78
2023/05/07 09:18:44;;;;;;;7.00;3.95;;;18.30;99.90;;;;;;5051395;28;20246;-77
2023/05/07 09:21:12;;;;;;;6.97;3.47;;;18.10;99.90;;;;;;5051946;28;20206;-71
2023/05/07 09:23:40;;;;;;;6.35;2.85;;;17.90;99.90;;;;;;5052068;28;20199;-79
2023/05/07 09:26:11;;;;;;;9.60;2.55;;;18.00;99.90;;;;;;5051274;28;20203;-77
2023/05/07 09:28:41;;;;;;;4.15;3.08;;;18.20;99.90;;;;;;5051821;28;20217;-79
2023/05/07 09:31:08;;;;;;;6.57;3.47;;;18.30;99.90;;;;;;5051833;28;20686;-77
2023/05/07 09:33:35;;;;;;;7.35;3.80;;;18.60;99.90;;;;;;5051570;28;20238;-79
2023/05/07 09:36:04;;;;;;;7.85;3.13;;;18.80;99.90;;;;;;5051069;28;20226;-80
2023/05/07 09:38:32;;;;;;;7.53;3.58;;;18.70;99.90;;;;;;5051561;28;20310;-76
2023/05/07 09:41:06;;;;;;;10.98;4.65;;;18.50;99.90;;;;;;5050811;28;20804;-80
2023/05/07 09:43:36;;;;;;;7.68;3.20;;;18.40;99.90;;;;;;5051625;28;20289;-81
2023/05/07 09:46:06;;;;;;;7.28;4.03;;;18.30;99.90;;;;;;5050947;28;20727;-80
2023/05/07 09:48:37;;;;;;;7.85;3.58;;;18.20;99.90;;;;;;5051426;28;20238;-81
2023/05/07 09:51:12;;;;;;;4.10;2.67;;;18.30;99.90;;;;;;5050940;28;20333;-80
2023/05/07 09:53:40;;;;;;;6.55;3.65;;;18.20;99.90;;;;;;5051094;28;20244;-75
2023/05/07 09:56:08;;;;;;;6.47;3.20;;;18.10;99.90;;;;;;5051569;28;20209;-77
2023/05/07 09:58:39;;;;;;;11.02;4.18;;;17.90;99.90;;;;;;5051306;28;20227;-79
2023/05/07 10:01:07;;;;;;;9.23;3.80;;;17.80;99.90;;;;;;5050898;28;20233;-81
2023/05/07 10:03:36;;;;;;;7.00;3.90;;;17.70;99.90;;;;;;5050975;28;20237;-79
2023/05/07 10:06:04;;;;;;;6.70;3.10;;;17.60;99.90;;;;;;5050951;28;20609;-78
2023/05/07 10:08:32;;;;;;;8.88;4.72;;;17.40;99.90;;;;;;5050752;28;20242;-78
2023/05/07 10:11:00;;;;;;;15.18;4.07;;;17.20;99.90;;;;;;5051014;28;20243;-76
2023/05/07 10:13:27;;;;;;;9.15;3.45;;;17.10;99.90;;;;;;5050989;28;20202;-77
2023/05/07 10:15:56;;;;;;;7.97;3.40;;;17.00;99.90;;;;;;5050380;28;20238;-77
2023/05/07 10:18:29;;;;;;;10.88;4.88;;;16.90;99.90;;;;;;5050828;28;20682;-75
2023/05/07 10:21:02;;;;;;;6.80;3.63;;;17.00;99.90;;;;;;5050535;28;20260;-76
2023/05/07 10:23:31;;;;;;;10.20;4.80;;;17.10;99.90;;;;;;5050689;28;20238;-77
2023/05/07 10:25:58;;;;;;;8.50;4.07;;;17.40;99.90;;;;;;5050491;28;20234;-77
2023/05/07 10:28:28;;;;;;;5.70;2.53;;;17.60;99.90;;;;;;5052826;28;20238;-76
2023/05/07 10:31:08;;;;;;;7.25;3.83;;;17.70;99.90;;;;;;5054446;28;20238;-77
2023/05/07 10:33:37;;;;;;;8.55;4.05;;;18.20;99.90;;;;;;5055127;28;20238;-75
2023/05/07 10:36:07;;;;;;;8.65;3.67;;;18.40;99.90;;;;;;5054435;28;20207;-77
2023/05/07 10:38:34;;;;;;;9.52;3.38;;;18.30;99.90;;;;;;5054658;28;20210;-77
2023/05/07 10:41:04;;;;;;;6.95;3.28;;;18.40;99.90;;;;;;5054148;28;20273;-77
2023/05/07 10:43:41;;;;;;;6.82;3.70;;;18.50;99.90;;;;;;5055238;28;20250;-77
2023/05/07 10:46:15;;;;;;;6.55;3.85;;;18.90;99.90;;;;;;5055095;28;20202;-77
2023/05/07 10:49:16;;;;;;;7.70;3.33;;;19.10;99.90;;;;;;5054745;28;20202;-76
2023/05/07 10:51:45;;;;;;;7.00;2.83;;;19.50;99.90;;;;;;5021536;28;20210;-72
2023/05/07 10:54:22;;;;;;;5.45;2.90;;;19.60;99.90;;;;;;5054708;28;20207;-77
2023/05/07 10:56:50;;;;;;;7.72;3.95;;;19.30;99.90;;;;;;5054061;28;20237;-70
2023/05/07 10:59:40;;;;;;;4.93;3.13;;;19.10;99.90;;;;;;5054500;28;20206;-70
2023/05/07 11:02:10;;;;;;;6.82;3.70;;;19.10;99.90;;;;;;5054097;28;20232;-76
2023/05/07 11:04:38;;;;;;;8.50;4.57;;;18.90;99.90;;;;;;5054527;28;20214;-77
2023/05/07 11:07:32;;;;;;;5.50;3.20;;;19.00;99.90;;;;;;5053747;28;20233;-77
2023/05/07 11:10:05;;;;;;;9.45;3.50;;;19.20;99.90;;;;;;5053785;28;20266;-76
2023/05/07 11:12:54;;;;;;;7.57;3.40;;;19.00;99.90;;;;;;5054185;28;20213;-72
2023/05/07 11:15:43;;;;;;;9.82;3.50;;;18.80;99.90;;;;;;5054295;28;20268;-76
2023/05/07 11:18:12;;;;;;;6.35;2.70;;;18.90;99.90;;;;;;5054481;28;20286;-75
2023/05/07 11:21:04;;;;;;;7.80;3.35;;;19.10;99.90;;;;;;5053920;28;20701;-77
2023/05/07 11:24:07;;;;;;;6.20;3.63;;;19.00;99.90;;;;;;5039294;28;20652;-76
2023/05/07 11:26:44;;;;;;;9.52;3.75;;;19.10;99.90;;;;;;5053979;28;20234;-71
2023/05/07 11:29:16;;;;;;;8.57;3.00;;;19.80;99.90;;;;;;5053676;28;20210;-71
2023/05/07 11:31:43;;;;;;;9.10;3.20;;;20.30;99.90;;;;;;5053691;28;20233;-72
2023/05/07 11:34:12;;;;;;;6.97;2.75;;;20.50;99.90;;;;;;5054337;28;20372;-77
2023/05/07 11:36:44;;;;;;;8.23;3.58;;;20.60;99.90;;;;;;5053920;28;20580;-73
2023/05/07 11:39:28;;;;;;;7.70;3.65;;;21.10;99.90;;;;;;5053249;28;20225;-74
2023/05/07 11:41:55;;;;;;;7.07;3.15;;;20.70;99.90;;;;;;5053505;28;20241;-73
2023/05/07 11:44:22;;;;;;;4.82;3.35;;;20.70;99.90;;;;;;5053791;28;20624;-77
2023/05/07 11:46:49;;;;;;;8.30;3.03;;;20.70;99.90;;;;;;5053121;28;20246;-73
2023/05/07 11:49:18;;;;;;;6.57;3.67;;;20.90;99.90;;;;;;5053368;28;20241;-73
2023/05/07 11:51:46;;;;;;;6.47;2.65;;;21.10;99.90;;;;;;5052966;28;20654;-76
2023/05/07 11:54:17;;;;;;;7.40;2.60;;;21.30;99.90;;;;;;5053321;28;20203;-73
2023/05/07 11:56:46;;;;;;;4.88;2.80;;;21.10;99.90;;;;;;5053003;28;20266;-73
2023/05/07 11:59:13;;;;;;;9.20;2.72;;;20.50;99.90;;;;;;5053407;28;20202;-75
2023/05/07 12:01:39;;;;;;;8.40;3.30;;;20.80;99.90;;;;;;5053409;28;20242;-73
2023/05/07 12:04:06;;;;;;;8.88;3.72;;;21.00;99.90;;;;;;5052852;28;20202;-73
2023/05/07 12:06:38;;;;;;;6.72;2.60;;;21.10;99.90;;;;;;5053107;28;20238;-76
2023/05/07 12:09:07;;;;;;;3.28;2.13;;;21.50;99.90;;;;;;5052713;28;20209;-74
2023/05/07 12:11:33;;;;;;;8.98;3.03;;;21.60;99.90;;;;;;5053001;28;20292;-76
2023/05/07 12:14:00;;;;;;;6.32;3.08;;;21.70;99.90;;;;;;5052743;28;20241;-74
2023/05/07 12:16:28;;;;;;;7.93;3.17;;;21.70;99.90;;;;;;5052761;28;20246;-74
2023/05/07 12:18:55;;;;;;;5.70;2.85;;;21.90;99.90;;;;;;5052371;28;20239;-75
2023/05/07 12:21:23;;;;;;;6.68;2.95;;;21.70;99.90;;;;;;5052709;28;20708;-76
2023/05/07 12:23:51;;;;;;;6.88;3.08;;;21.30;99.90;;;;;;5052584;28;20245;-76
2023/05/07 12:26:20;;;;;;;6.30;3.03;;;20.80;99.90;;;;;;5052982;28;20230;-78
2023/05/07 12:28:47;;;;;;;5.82;2.42;;;21.00;99.90;;;;;;5052272;28;20199;-75
2023/05/07 12:31:15;;;;;;;7.20;2.90;;;21.30;99.90;;;;;;5052628;28;20288;-75
2023/05/07 12:33:43;;;;;;;3.95;1.70;;;21.00;99.90;;;;;;5052452;28;20716;-78
2023/05/07 12:36:13;;;;;;;5.60;3.15;;;20.60;99.90;;;;;;5053197;28;20238;-78
2023/05/07 12:38:40;;;;;;;5.22;2.17;;;20.50;99.90;;;;;;5053013;28;20327;-77
2023/05/07 12:41:12;;;;;;;4.88;2.08;;;21.20;99.90;;;;;;5052552;28;20206;-79
2023/05/07 12:43:39;;;;;;;4.78;2.65;;;21.80;99.90;;;;;;5052817;28;20671;-76
2023/05/07 12:46:07;;;;;;;5.28;2.20;;;22.00;99.90;;;;;;5052071;28;20202;-73
2023/05/07 12:48:36;;;;;;;4.38;2.10;;;21.90;99.90;;;;;;5052605;28;20242;-74
2023/05/07 12:51:03;;;;;;;4.85;1.98;;;22.20;99.90;;;;;;5051171;28;20278;-78
2023/05/07 12:53:31;;;;;;;5.88;2.20;;;22.70;99.90;;;;;;5052060;28;20238;-76
2023/05/07 12:55:59;;;;;;;4.65;2.15;;;22.90;99.90;;;;;;5051871;28;20209;-73